Time;durP1;ratioP1;P1;durP2;ratioP2;P2;SDS_P1;SDS_P2;PMS_P1;PMS_P2;Temp;Humidity;BMP_temperature;BMP_pressure;BME280_temperature;BME280_humidity;BME280_pressure;Samples;Min_cycle;Max_cycle;Signal;HPM_P1;HPM_P2
2021/05/17 00:02:21;;;;;;;4.10;1.17;;;11.10;99.90;;;;;;4973445;28;20848;-53
2021/05/17 00:04:48;;;;;;;4.50;1.13;;;11.10;99.90;;;;;;4955147;28;20440;-53
2021/05/17 00:07:15;;;;;;;4.25;1.00;;;11.10;99.90;;;;;;4955812;28;20392;-53
2021/05/17 00:09:40;;;;;;;3.40;1.10;;;11.30;99.90;;;;;;4972152;28;20396;-61
2021/05/17 00:12:07;;;;;;;4.30;1.10;;;11.20;99.90;;;;;;4973247;28;20934;-53
2021/05/17 00:14:33;;;;;;;3.70;1.00;;;11.10;99.90;;;;;;4954767;28;20388;-53
2021/05/17 00:16:59;;;;;;;3.20;1.20;;;11.10;99.90;;;;;;4972723;28;20722;-60
2021/05/17 00:19:25;;;;;;;3.10;0.80;;;11.10;99.90;;;;;;4973121;28;20388;-53
2021/05/17 00:21:51;;;;;;;3.58;1.10;;;11.00;99.90;;;;;;4972134;28;20380;-53
2021/05/17 00:24:18;;;;;;;3.45;1.10;;;11.00;99.90;;;;;;4972710;28;20398;-52
2021/05/17 00:26:46;;;;;;;3.60;1.00;;;11.10;99.90;;;;;;4972180;28;20435;-53
2021/05/17 00:29:13;;;;;;;3.45;1.00;;;11.10;99.90;;;;;;4972485;28;20899;-53
2021/05/17 00:31:41;;;;;;;4.03;1.00;;;11.00;99.90;;;;;;4971669;28;20459;-53
2021/05/17 00:34:08;;;;;;;3.60;1.10;;;11.00;99.90;;;;;;4972831;28;20740;-53
2021/05/17 00:36:34;;;;;;;4.10;1.08;;;11.10;99.90;;;;;;4971845;28;20389;-53
2021/05/17 00:39:03;;;;;;;4.20;0.90;;;11.00;99.90;;;;;;4955118;28;20415;-53
2021/05/17 00:41:29;;;;;;;4.50;0.80;;;11.00;99.90;;;;;;4972287;28;20396;-60
2021/05/17 00:43:56;;;;;;;3.78;0.80;;;11.00;99.90;;;;;;4971864;28;20395;-53
2021/05/17 00:46:24;;;;;;;3.88;1.10;;;11.00;99.90;;;;;;4972453;28;20457;-53
2021/05/17 00:48:51;;;;;;;3.63;0.90;;;11.00;99.90;;;;;;4971644;28;20591;-55
2021/05/17 00:51:17;;;;;;;3.90;0.90;;;11.00;99.90;;;;;;4972292;28;20508;-53
2021/05/17 00:53:44;;;;;;;4.30;1.00;;;10.90;99.90;;;;;;4971174;28;20396;-53
2021/05/17 00:56:10;;;;;;;5.65;1.00;;;10.90;99.90;;;;;;4972425;28;20380;-53
2021/05/17 00:58:37;;;;;;;3.05;1.00;;;10.90;99.90;;;;;;4971530;28;20475;-53
2021/05/17 01:01:04;;;;;;;3.90;1.02;;;10.90;99.90;;;;;;4971825;28;20758;-53
2021/05/17 01:03:30;;;;;;;3.67;1.00;;;10.90;99.90;;;;;;4972233;28;20389;-60
2021/05/17 01:05:56;;;;;;;5.90;1.10;;;10.90;99.90;;;;;;4970853;28;20392;-53
2021/05/17 01:08:24;;;;;;;4.90;1.30;;;10.80;99.90;;;;;;4972152;28;20503;-53
2021/05/17 01:10:54;;;;;;;3.30;1.08;;;10.80;99.90;;;;;;4971378;28;20398;-53
2021/05/17 01:13:20;;;;;;;3.90;1.30;;;10.80;99.90;;;;;;4971900;28;20543;-52
2021/05/17 01:15:48;;;;;;;3.80;1.00;;;10.80;99.90;;;;;;4971082;28;20395;-53
2021/05/17 01:18:19;;;;;;;3.50;1.00;;;10.80;99.90;;;;;;4971355;28;20437;-58
2021/05/17 01:20:47;;;;;;;3.80;1.10;;;10.90;99.90;;;;;;4971311;28;20400;-57
2021/05/17 01:25:48;;;;;;;4.20;1.20;;;10.80;99.90;;;;;;4971052;28;20894;-53
2021/05/17 01:28:22;;;;;;;5.70;1.00;;;10.70;99.90;;;;;;4971432;28;20930;-58
2021/05/17 01:30:50;;;;;;;4.60;1.10;;;10.70;99.90;;;;;;4970930;28;20871;-53
2021/05/17 01:33:15;;;;;;;3.22;0.80;;;10.70;99.90;;;;;;4971731;28;20471;-53
2021/05/17 01:35:42;;;;;;;3.60;0.90;;;10.70;99.90;;;;;;4970705;28;20475;-54
2021/05/17 01:38:08;;;;;;;3.40;0.98;;;10.70;99.90;;;;;;4971562;28;20419;-53
2021/05/17 01:40:38;;;;;;;4.18;0.90;;;10.70;99.90;;;;;;4971104;28;20471;-54
2021/05/17 01:43:06;;;;;;;3.92;1.00;;;10.70;99.90;;;;;;4954198;28;20392;-53
2021/05/17 01:45:31;;;;;;;3.80;1.40;;;10.60;99.90;;;;;;4970966;28;20411;-63
2021/05/17 01:47:58;;;;;;;4.60;1.20;;;10.60;99.90;;;;;;4970994;28;20892;-53
2021/05/17 01:50:25;;;;;;;3.38;0.90;;;10.50;99.90;;;;;;4971721;28;20412;-53
2021/05/17 01:52:51;;;;;;;3.20;1.00;;;10.60;99.90;;;;;;4970459;28;20451;-53
2021/05/17 01:55:18;;;;;;;3.90;0.90;;;10.70;99.90;;;;;;4971436;28;20380;-53
2021/05/17 01:57:44;;;;;;;3.10;0.80;;;10.70;99.90;;;;;;4970279;28;20395;-54
2021/05/17 02:00:13;;;;;;;3.42;0.90;;;10.80;99.90;;;;;;4971367;28;20385;-53
2021/05/17 02:02:39;;;;;;;4.30;0.80;;;10.90;99.90;;;;;;4970386;28;20396;-54
2021/05/17 02:05:06;;;;;;;4.65;1.05;;;10.90;99.90;;;;;;4971625;28;20395;-53
2021/05/17 02:07:32;;;;;;;3.33;0.90;;;10.90;99.90;;;;;;4970891;28;20498;-63
2021/05/17 02:09:59;;;;;;;3.90;1.00;;;10.90;99.90;;;;;;4970921;28;20388;-53
2021/05/17 02:12:25;;;;;;;4.18;0.95;;;11.00;99.90;;;;;;4953856;28;20384;-53
2021/05/17 02:14:54;;;;;;;3.28;0.95;;;11.00;99.90;;;;;;4970495;28;20415;-53
2021/05/17 02:17:22;;;;;;;5.15;1.10;;;11.10;99.90;;;;;;4971006;28;20399;-53
2021/05/17 02:19:48;;;;;;;3.10;0.90;;;11.10;99.90;;;;;;4974384;28;20388;-53
2021/05/17 02:22:21;;;;;;;3.10;1.20;;;11.10;99.90;;;;;;4975299;28;20518;-54
2021/05/17 02:24:47;;;;;;;5.18;0.80;;;11.10;99.90;;;;;;4974327;28;20384;-53
2021/05/17 02:27:15;;;;;;;3.73;0.90;;;11.10;99.90;;;;;;4975092;28;20380;-53
2021/05/17 02:29:42;;;;;;;2.90;0.80;;;11.00;99.90;;;;;;4956456;28;20953;-53
2021/05/17 02:32:08;;;;;;;3.08;0.90;;;11.00;99.90;;;;;;4974854;28;20392;-53
2021/05/17 02:34:34;;;;;;;4.60;1.02;;;11.00;99.90;;;;;;4972994;28;20404;-63
2021/05/17 02:37:01;;;;;;;4.20;0.80;;;11.10;99.90;;;;;;4974810;28;20462;-53
2021/05/17 02:39:27;;;;;;;5.00;0.88;;;11.00;99.90;;;;;;4974991;28;20424;-53
2021/05/17 02:41:56;;;;;;;3.20;0.80;;;11.00;99.90;;;;;;4973944;28;20384;-53
2021/05/17 02:44:23;;;;;;;3.20;0.70;;;10.90;99.90;;;;;;4974687;28;20867;-53
2021/05/17 02:46:56;;;;;;;3.63;0.70;;;10.90;99.90;;;;;;4956623;28;20388;-53
2021/05/17 02:49:22;;;;;;;5.32;0.90;;;10.90;99.90;;;;;;4974634;28;20422;-53
2021/05/17 02:51:49;;;;;;;4.30;1.03;;;10.90;99.90;;;;;;4973838;28;20393;-54
2021/05/17 02:54:32;;;;;;;3.97;0.77;;;10.80;99.90;;;;;;4974630;28;20388;-53
2021/05/17 02:56:58;;;;;;;4.78;0.82;;;10.80;99.90;;;;;;4973823;28;20388;-53
2021/05/17 02:59:38;;;;;;;3.00;0.60;;;10.90;99.90;;;;;;4974025;28;20426;-53
2021/05/17 03:02:08;;;;;;;4.43;0.80;;;10.90;99.90;;;;;;4974011;28;20757;-52
2021/05/17 03:04:40;;;;;;;7.22;1.40;;;10.80;99.90;;;;;;4956596;28;20801;-62
2021/05/17 03:07:11;;;;;;;3.92;0.70;;;10.90;99.90;;;;;;4974499;28;20732;-53
2021/05/17 03:09:38;;;;;;;2.70;0.70;;;10.90;99.90;;;;;;4973612;28;20400;-54
2021/05/17 03:12:08;;;;;;;3.00;0.70;;;10.90;99.90;;;;;;4973929;28;20395;-53
2021/05/17 03:14:35;;;;;;;3.70;0.70;;;10.80;99.90;;;;;;4973646;28;20396;-61
2021/05/17 03:17:01;;;;;;;3.37;0.87;;;10.80;99.90;;;;;;4956832;28;20393;-53
2021/05/17 03:19:28;;;;;;;2.90;0.80;;;10.80;99.90;;;;;;4974144;28;20419;-53
2021/05/17 03:22:00;;;;;;;3.60;0.80;;;10.60;99.90;;;;;;4973244;28;20416;-53
2021/05/17 03:24:31;;;;;;;2.95;0.77;;;10.80;99.90;;;;;;4974402;28;20483;-61
2021/05/17 03:27:07;;;;;;;3.10;0.70;;;10.80;99.90;;;;;;4973391;28;20415;-53
2021/05/17 03:29:33;;;;;;;3.20;0.80;;;10.90;99.90;;;;;;4973297;28;20499;-63
2021/05/17 03:31:59;;;;;;;3.28;0.80;;;10.80;99.90;;;;;;4957020;28;20878;-53
2021/05/17 03:34:25;;;;;;;2.97;0.70;;;10.80;99.90;;;;;;4953420;29;20402;-53
2021/05/17 03:36:50;;;;;;;3.40;0.70;;;10.10;99.90;;;;;;4953643;29;20397;-53
2021/05/17 03:39:16;;;;;;;3.00;0.90;;;10.80;99.90;;;;;;4954315;29;20398;-53
2021/05/17 03:41:42;;;;;;;3.28;0.80;;;10.90;99.90;;;;;;4953339;28;20448;-53
2021/05/17 03:44:07;;;;;;;5.20;1.10;;;10.90;99.90;;;;;;4953959;29;20430;-53
2021/05/17 03:46:33;;;;;;;3.40;0.97;;;10.90;99.90;;;;;;4954430;29;20433;-62
2021/05/17 03:48:59;;;;;;;2.92;0.70;;;10.80;99.90;;;;;;4953724;29;20422;-53
2021/05/17 03:51:24;;;;;;;3.77;0.70;;;10.70;99.90;;;;;;4954007;29;20436;-54
2021/05/17 03:53:50;;;;;;;3.42;0.70;;;10.80;99.90;;;;;;4953202;29;20421;-53
2021/05/17 03:56:15;;;;;;;2.77;0.70;;;10.80;99.90;;;;;;4954007;29;20473;-52
2021/05/17 03:58:41;;;;;;;4.20;0.80;;;10.80;99.90;;;;;;4953117;29;20405;-53
2021/05/17 04:01:07;;;;;;;6.40;0.80;;;10.80;99.90;;;;;;4954006;29;20850;-52
2021/05/17 04:03:32;;;;;;;3.50;0.60;;;10.80;99.90;;;;;;4954085;29;20390;-61
2021/05/17 04:13:36;;;;;;;3.40;1.10;;;10.70;99.90;;;;;;4953150;29;20510;-62
2021/05/17 04:16:02;;;;;;;3.63;0.60;;;10.70;99.90;;;;;;4953526;29;20486;-53
2021/05/17 04:18:28;;;;;;;4.50;0.80;;;10.60;99.90;;;;;;4953758;29;20386;-53
2021/05/17 04:20:53;;;;;;;4.57;0.80;;;10.70;99.90;;;;;;4952942;29;20973;-53
2021/05/17 04:23:21;;;;;;;3.00;0.70;;;10.70;99.90;;;;;;4936324;29;20394;-53
2021/05/17 04:25:47;;;;;;;4.30;0.70;;;10.80;99.90;;;;;;4952794;29;20506;-53
2021/05/17 04:28:12;;;;;;;2.77;0.57;;;10.90;99.90;;;;;;4953257;28;20520;-53
2021/05/17 04:30:38;;;;;;;3.33;0.70;;;11.00;99.90;;;;;;4952729;29;20390;-53
2021/05/17 04:33:04;;;;;;;3.10;0.60;;;11.10;99.90;;;;;;4962130;28;20397;-53
2021/05/17 04:35:29;;;;;;;4.00;0.60;;;11.20;99.90;;;;;;4962755;28;20416;-53
2021/05/17 04:37:55;;;;;;;4.35;0.82;;;11.30;99.90;;;;;;4962404;28;20579;-52
2021/05/17 04:40:21;;;;;;;3.80;0.50;;;11.20;99.90;;;;;;4960422;28;20400;-54
2021/05/17 04:42:47;;;;;;;3.20;0.60;;;11.20;99.90;;;;;;4946215;28;20396;-54
2021/05/17 04:45:13;;;;;;;3.60;0.65;;;11.30;99.90;;;;;;4962054;28;20399;-53
2021/05/17 04:47:38;;;;;;;3.00;0.70;;;11.30;99.90;;;;;;4960081;28;20431;-63
2021/05/17 04:50:06;;;;;;;5.38;0.80;;;11.40;99.90;;;;;;4964055;28;20394;-53
2021/05/17 04:52:31;;;;;;;4.10;0.80;;;11.50;99.90;;;;;;4956770;28;20415;-53
2021/05/17 04:54:57;;;;;;;3.20;0.70;;;11.50;99.90;;;;;;4952093;29;20612;-60
2021/05/17 04:57:23;;;;;;;4.20;0.60;;;11.60;99.90;;;;;;4952985;29;20897;-55
2021/05/17 04:59:48;;;;;;;3.20;1.10;;;11.60;99.90;;;;;;4951950;29;20822;-54
2021/05/17 05:02:14;;;;;;;4.15;0.80;;;11.70;99.90;;;;;;4951819;29;20885;-54
2021/05/17 05:04:40;;;;;;;6.50;0.60;;;11.90;99.90;;;;;;4951936;29;20393;-54
2021/05/17 05:07:07;;;;;;;3.08;0.60;;;11.80;99.90;;;;;;4952664;29;20866;-54
2021/05/17 05:09:33;;;;;;;3.03;0.70;;;11.90;99.90;;;;;;4960769;28;20420;-54
2021/05/17 05:11:59;;;;;;;2.90;0.57;;;11.80;99.90;;;;;;4971229;28;20475;-55
2021/05/17 05:14:24;;;;;;;3.10;0.70;;;11.80;99.90;;;;;;4971936;28;20384;-53
2021/05/17 05:16:50;;;;;;;3.27;0.60;;;11.70;99.90;;;;;;4971129;28;20475;-54
2021/05/17 05:19:15;;;;;;;3.13;0.70;;;11.70;99.90;;;;;;4971972;28;20883;-53
2021/05/17 05:21:41;;;;;;;3.60;0.60;;;11.50;99.90;;;;;;4971361;28;20753;-54
2021/05/17 05:24:07;;;;;;;3.10;0.60;;;11.50;99.90;;;;;;4972204;28;20879;-54
2021/05/17 05:29:17;;;;;;;3.30;0.70;;;12.10;99.90;;;;;;4970967;28;20435;-54
2021/05/17 05:34:17;;;;;;;3.13;0.60;;;12.00;99.90;;;;;;4971768;28;20887;-61
2021/05/17 05:36:43;;;;;;;5.87;1.10;;;11.70;99.90;;;;;;4970652;28;20400;-61
2021/05/17 05:39:09;;;;;;;3.95;0.80;;;11.90;99.90;;;;;;4971425;28;20399;-61
2021/05/17 05:41:34;;;;;;;4.00;0.67;;;12.10;99.90;;;;;;4971653;28;20392;-61
2021/05/17 05:44:00;;;;;;;3.90;0.80;;;12.20;99.90;;;;;;4970483;28;20745;-61
2021/05/17 05:46:27;;;;;;;3.80;0.60;;;12.40;99.90;;;;;;4971257;28;20384;-54
2021/05/17 05:48:53;;;;;;;3.90;0.80;;;13.20;99.90;;;;;;4970798;28;20438;-54
2021/05/17 05:51:24;;;;;;;3.00;0.50;;;13.40;99.90;;;;;;4969011;28;20387;-59
2021/05/17 05:53:51;;;;;;;3.80;1.20;;;13.20;99.90;;;;;;4957727;28;20409;-52
2021/05/17 05:56:17;;;;;;;3.05;0.60;;;12.70;99.90;;;;;;4963838;28;20397;-53
2021/05/17 05:58:44;;;;;;;4.03;0.60;;;12.50;99.90;;;;;;4953411;28;20765;-52
2021/05/17 06:01:10;;;;;;;3.45;0.80;;;12.50;99.90;;;;;;4953786;28;20874;-53
2021/05/17 06:03:37;;;;;;;4.60;0.80;;;12.30;99.90;;;;;;4962786;28;20497;-64
2021/05/17 06:06:03;;;;;;;4.15;1.00;;;12.00;99.90;;;;;;4968439;28;20396;-56
2021/05/17 06:08:29;;;;;;;4.57;0.93;;;11.80;99.90;;;;;;4969904;28;20470;-53
2021/05/17 06:10:55;;;;;;;4.72;0.70;;;11.70;99.90;;;;;;4956757;28;20394;-53
2021/05/17 06:13:21;;;;;;;3.90;0.70;;;11.50;99.90;;;;;;4951122;29;20853;-52
2021/05/17 06:15:47;;;;;;;3.65;1.00;;;11.40;99.90;;;;;;4951029;29;20390;-54
2021/05/17 06:18:13;;;;;;;3.40;0.70;;;11.40;99.90;;;;;;4951357;29;20473;-52
2021/05/17 06:20:40;;;;;;;4.17;0.80;;;11.50;99.90;;;;;;4933657;29;20761;-65
2021/05/17 06:23:09;;;;;;;3.10;0.70;;;11.60;99.90;;;;;;4951554;29;20390;-53
2021/05/17 06:25:35;;;;;;;4.60;0.80;;;11.80;99.90;;;;;;4951452;29;20401;-53
2021/05/17 06:28:02;;;;;;;4.70;0.90;;;11.90;99.90;;;;;;4963802;28;20470;-53
2021/05/17 06:30:28;;;;;;;4.10;1.10;;;12.10;99.90;;;;;;4970759;28;20475;-53
2021/05/17 06:32:55;;;;;;;4.50;0.68;;;12.20;99.90;;;;;;4969733;28;20475;-53
2021/05/17 06:35:27;;;;;;;3.70;0.70;;;12.10;99.90;;;;;;4971021;28;20388;-52
2021/05/17 06:37:53;;;;;;;4.00;1.10;;;11.90;99.90;;;;;;4969766;28;20396;-52
2021/05/17 06:40:19;;;;;;;3.17;0.60;;;12.10;99.90;;;;;;4970575;28;20856;-52
2021/05/17 06:42:45;;;;;;;4.00;0.98;;;12.50;99.90;;;;;;4969619;28;20403;-53
2021/05/17 06:45:12;;;;;;;3.63;1.20;;;12.50;99.90;;;;;;4970350;28;20875;-52
2021/05/17 06:47:37;;;;;;;4.63;1.02;;;12.40;99.90;;;;;;4970364;28;20892;-63
2021/05/17 06:50:05;;;;;;;3.70;0.60;;;12.60;99.90;;;;;;4970035;28;20389;-53
2021/05/17 06:52:31;;;;;;;3.10;0.60;;;12.80;99.90;;;;;;4969980;28;20407;-53
2021/05/17 06:55:00;;;;;;;3.30;0.60;;;12.60;99.90;;;;;;4968923;28;20895;-53
2021/05/17 06:58:08;;;;;;;3.05;0.60;;;12.50;99.90;;;;;;4952977;28;20768;-53
2021/05/17 07:00:27;;;;;;;3.15;0.60;;;12.80;99.90;;;;;;4967070;28;20404;-53
2021/05/17 07:02:56;;;;;;;3.58;0.60;;;13.00;99.90;;;;;;4950497;28;20420;-55
2021/05/17 07:05:22;;;;;;;3.38;0.60;;;13.00;99.90;;;;;;4954100;29;20397;-55
2021/05/17 07:13:12;;;;;;;3.50;0.60;;;13.00;99.90;;;;;;4954209;29;20416;-54
2021/05/17 07:15:38;;;;;;;3.10;0.63;;;13.00;99.90;;;;;;4953852;29;20434;-67
2021/05/17 07:18:05;;;;;;;3.35;0.60;;;12.50;99.90;;;;;;4936874;29;20405;-54
2021/05/17 07:25:58;;;;;;;3.80;0.90;;;12.50;99.90;;;;;;4953114;29;21230;-53
2021/05/17 07:28:24;;;;;;;2.80;0.45;;;12.40;99.90;;;;;;4953679;29;20472;-52
2021/05/17 07:30:50;;;;;;;6.57;0.95;;;12.50;99.90;;;;;;4952883;29;20877;-53
2021/05/17 07:33:15;;;;;;;5.60;0.80;;;13.40;99.90;;;;;;4954082;29;20742;-53
2021/05/17 07:35:42;;;;;;;3.70;0.70;;;13.80;99.90;;;;;;4953172;29;20746;-63
2021/05/17 07:38:08;;;;;;;3.80;0.77;;;13.90;99.90;;;;;;4953575;29;20485;-53
2021/05/17 07:40:34;;;;;;;5.18;0.80;;;13.90;99.90;;;;;;4953696;29;20840;-53
2021/05/17 07:43:00;;;;;;;4.50;0.70;;;13.70;99.90;;;;;;4952854;29;20495;-52
2021/05/17 07:45:25;;;;;;;4.50;0.80;;;13.60;99.90;;;;;;4953780;29;20406;-53
2021/05/17 07:47:51;;;;;;;6.77;1.20;;;13.70;99.90;;;;;;4952869;29;20422;-53
2021/05/17 07:50:18;;;;;;;3.60;0.70;;;14.30;99.90;;;;;;4953799;29;20413;-53
2021/05/17 07:52:44;;;;;;;4.30;0.70;;;15.10;99.90;;;;;;4953310;29;20401;-53
2021/05/17 07:55:10;;;;;;;4.45;0.63;;;15.30;99.90;;;;;;4952912;29;20448;-53
2021/05/17 07:57:35;;;;;;;4.60;1.07;;;15.20;99.90;;;;;;4936533;29;20762;-53
2021/05/17 08:00:02;;;;;;;4.07;0.73;;;14.90;99.90;;;;;;4952675;29;20418;-53
2021/05/17 08:02:28;;;;;;;5.10;0.82;;;14.60;99.90;;;;;;4952695;29;20402;-53
2021/05/17 08:04:53;;;;;;;3.93;1.40;;;14.20;99.90;;;;;;4953098;29;20872;-53
2021/05/17 08:07:21;;;;;;;5.05;0.90;;;13.90;99.90;;;;;;4953668;29;20406;-53
2021/05/17 08:09:48;;;;;;;4.97;1.20;;;13.50;99.90;;;;;;4952662;29;20476;-54
2021/05/17 08:12:14;;;;;;;3.80;0.73;;;13.20;99.90;;;;;;4953224;29;20433;-53
2021/05/17 08:14:40;;;;;;;4.25;0.82;;;13.10;99.90;;;;;;4952464;28;20382;-63
2021/05/17 08:17:06;;;;;;;4.20;0.75;;;13.10;99.90;;;;;;4951760;29;20378;-53
2021/05/17 08:19:33;;;;;;;4.00;0.90;;;13.70;99.90;;;;;;4936068;29;20810;-53
2021/05/17 08:22:00;;;;;;;3.25;0.60;;;15.00;99.90;;;;;;4952138;29;20405;-57
2021/05/17 08:24:26;;;;;;;3.57;0.70;;;15.30;99.90;;;;;;4953044;29;20382;-53
2021/05/17 08:26:52;;;;;;;4.75;1.10;;;14.90;99.90;;;;;;4952271;29;20863;-54
2021/05/17 08:29:18;;;;;;;4.80;0.90;;;14.80;99.90;;;;;;4952362;29;20437;-53
2021/05/17 08:31:47;;;;;;;5.65;0.80;;;14.40;99.90;;;;;;4952430;29;20485;-54
2021/05/17 08:34:12;;;;;;;3.50;0.80;;;15.00;99.90;;;;;;4953012;29;20406;-60
2021/05/17 08:36:38;;;;;;;5.03;0.80;;;16.30;99.90;;;;;;4952564;29;20398;-54
2021/05/17 08:39:05;;;;;;;3.50;0.65;;;16.90;99.90;;;;;;4951871;29;20782;-53
2021/05/17 08:41:35;;;;;;;5.50;0.90;;;17.50;99.90;;;;;;4952682;29;20386;-56
2021/05/17 08:44:01;;;;;;;5.90;1.00;;;17.00;99.90;;;;;;4951662;29;20437;-54
2021/05/17 08:46:27;;;;;;;3.70;0.80;;;16.60;99.90;;;;;;4935375;29;20754;-54
2021/05/17 08:48:54;;;;;;;5.40;0.73;;;17.20;99.90;;;;;;4952079;29;20426;-53
2021/05/17 08:51:29;;;;;;;4.03;0.90;;;16.60;99.90;;;;;;4952292;29;20418;-53
2021/05/17 08:54:02;;;;;;;4.20;0.90;;;16.60;99.90;;;;;;4934555;29;20795;-53
2021/05/17 08:56:29;;;;;;;4.90;0.80;;;15.90;99.90;;;;;;4952302;29;20913;-53
2021/05/17 08:59:00;;;;;;;4.30;0.80;;;15.40;99.90;;;;;;4951691;29;20530;-54
2021/05/17 09:01:26;;;;;;;5.03;0.90;;;15.00;99.90;;;;;;4952520;29;20463;-53
2021/05/17 09:04:12;;;;;;;3.40;0.80;;;14.90;99.90;;;;;;4951671;29;20377;-54
2021/05/17 09:06:55;;;;;;;4.57;0.70;;;14.80;99.90;;;;;;4952430;29;20927;-55
2021/05/17 09:09:21;;;;;;;5.30;1.70;;;14.60;99.90;;;;;;4934864;29;20540;-53
2021/05/17 09:11:49;;;;;;;4.00;0.70;;;14.30;99.90;;;;;;4951469;29;20456;-54
2021/05/17 09:14:14;;;;;;;3.72;0.70;;;14.10;99.90;;;;;;4934660;29;20726;-53
2021/05/17 09:16:45;;;;;;;3.60;0.60;;;14.10;99.90;;;;;;4951623;29;20398;-66
2021/05/17 09:19:12;;;;;;;5.30;0.60;;;14.10;99.90;;;;;;4952523;29;20394;-57
2021/05/17 09:21:59;;;;;;;3.50;0.70;;;13.70;99.90;;;;;;4951862;29;20390;-53
2021/05/17 09:24:36;;;;;;;4.80;0.73;;;13.80;99.90;;;;;;4951864;29;20785;-53
2021/05/17 09:27:03;;;;;;;3.22;0.70;;;14.10;99.90;;;;;;4950907;28;20429;-53
2021/05/17 09:29:29;;;;;;;4.25;0.70;;;14.40;99.90;;;;;;4951382;29;20488;-53
2021/05/17 09:32:08;;;;;;;4.20;0.85;;;15.30;99.90;;;;;;4950832;29;20890;-57
2021/05/17 09:34:34;;;;;;;3.38;0.70;;;16.10;99.90;;;;;;4952329;29;20386;-53
2021/05/17 09:37:08;;;;;;;3.10;0.60;;;15.50;99.90;;;;;;4950899;29;20690;-53
2021/05/17 09:39:36;;;;;;;3.60;0.70;;;15.10;99.90;;;;;;4951702;29;20439;-53
2021/05/17 09:42:04;;;;;;;3.58;0.60;;;15.50;99.90;;;;;;4950853;29;20386;-53
2021/05/17 09:44:31;;;;;;;4.70;0.90;;;15.10;99.90;;;;;;4951745;29;20473;-53
2021/05/17 09:47:02;;;;;;;5.15;0.80;;;15.30;99.90;;;;;;4950552;29;20873;-53
2021/05/17 09:49:38;;;;;;;3.30;0.70;;;14.80;99.90;;;;;;4951828;29;20432;-53
2021/05/17 09:52:22;;;;;;;3.90;0.60;;;14.60;99.90;;;;;;4951262;29;20397;-53
2021/05/17 09:54:57;;;;;;;3.30;0.57;;;14.80;99.90;;;;;;4951141;29;20472;-53
2021/05/17 09:57:27;;;;;;;4.28;0.70;;;14.80;99.90;;;;;;4951513;29;20467;-53
2021/05/17 09:59:54;;;;;;;4.20;0.80;;;15.10;99.90;;;;;;4951030;29;20402;-53
2021/05/17 10:02:30;;;;;;;4.25;0.75;;;15.20;99.90;;;;;;4950990;29;20891;-53
2021/05/17 10:04:57;;;;;;;3.30;0.60;;;15.20;99.90;;;;;;4951178;29;20398;-57
2021/05/17 10:07:23;;;;;;;3.90;0.60;;;14.70;99.90;;;;;;4951646;29;20476;-53
2021/05/17 10:09:50;;;;;;;4.03;0.60;;;14.30;99.90;;;;;;4950779;29;20957;-53
2021/05/17 10:12:16;;;;;;;3.10;0.50;;;14.30;99.90;;;;;;4951343;29;20378;-54
2021/05/17 10:14:42;;;;;;;3.20;0.67;;;14.90;99.90;;;;;;4951164;29;20754;-64
2021/05/17 10:17:08;;;;;;;3.20;0.70;;;15.50;99.90;;;;;;4950728;29;20436;-54
2021/05/17 10:19:33;;;;;;;4.45;0.68;;;15.50;99.90;;;;;;4951270;29;20782;-53
2021/05/17 10:21:59;;;;;;;3.95;0.60;;;15.60;99.90;;;;;;4951007;29;20760;-54
2021/05/17 10:24:25;;;;;;;3.20;0.57;;;15.90;99.90;;;;;;4951300;29;20433;-53
2021/05/17 10:26:51;;;;;;;3.30;0.53;;;15.90;99.90;;;;;;4951249;29;20421;-53
2021/05/17 10:29:17;;;;;;;4.00;0.50;;;16.00;99.90;;;;;;4950630;29;20429;-53
2021/05/17 10:31:52;;;;;;;3.80;0.60;;;16.00;99.90;;;;;;4950775;29;20398;-65
2021/05/17 10:34:18;;;;;;;4.70;0.60;;;15.80;99.90;;;;;;4951033;29;20810;-53
2021/05/17 10:36:57;;;;;;;3.10;0.50;;;15.80;99.90;;;;;;4950865;29;20394;-65
2021/05/17 10:39:37;;;;;;;4.00;0.50;;;15.50;99.90;;;;;;4952829;28;20489;-57
2021/05/17 10:47:43;;;;;;;8.20;0.80;;;15.60;99.90;;;;;;4958471;28;20471;-65
2021/05/17 10:50:17;;;;;;;3.20;0.60;;;14.00;99.90;;;;;;4944780;29;20420;-53
2021/05/17 10:52:43;;;;;;;3.63;0.50;;;15.30;99.90;;;;;;4954914;29;20404;-63
2021/05/17 10:55:14;;;;;;;3.00;0.50;;;15.20;99.90;;;;;;4953182;29;20395;-53
2021/05/17 10:58:10;;;;;;;4.90;0.60;;;15.20;99.90;;;;;;4954360;29;20393;-53
2021/05/17 11:00:38;;;;;;;3.47;0.60;;;15.40;99.90;;;;;;4954604;29;20460;-53
2021/05/17 11:03:15;;;;;;;3.60;0.60;;;15.50;99.90;;;;;;4936377;29;20700;-53
2021/05/17 11:05:44;;;;;;;4.20;0.90;;;15.20;99.90;;;;;;4954671;29;20392;-52
2021/05/17 11:08:16;;;;;;;5.93;1.17;;;14.40;99.90;;;;;;4954000;29;20417;-52
2021/05/17 11:10:46;;;;;;;6.10;1.40;;;13.80;99.90;;;;;;4954803;29;20870;-52
2021/05/17 11:13:12;;;;;;;5.65;0.80;;;13.30;99.90;;;;;;4954465;29;20485;-53
2021/05/17 11:15:45;;;;;;;5.00;0.80;;;12.80;99.90;;;;;;4937262;29;20492;-52
2021/05/17 11:18:12;;;;;;;5.63;1.20;;;12.60;99.90;;;;;;4968018;28;20434;-53
2021/05/17 11:20:44;;;;;;;3.92;0.85;;;12.50;99.90;;;;;;4973850;28;20392;-53
2021/05/17 11:23:14;;;;;;;4.55;1.10;;;12.70;99.90;;;;;;4951740;29;20406;-54
2021/05/17 11:25:59;;;;;;;5.07;1.58;;;12.80;99.90;;;;;;4953865;29;20393;-52
2021/05/17 11:28:37;;;;;;;5.50;1.85;;;13.00;99.90;;;;;;4936362;29;20496;-53
2021/05/17 11:33:59;;;;;;;6.35;1.50;;;13.60;99.90;;;;;;4953432;29;20875;-52
2021/05/17 11:36:30;;;;;;;7.38;1.40;;;13.50;99.90;;;;;;4954438;29;20393;-54
2021/05/17 11:39:17;;;;;;;5.60;1.10;;;13.20;99.90;;;;;;4953620;29;20418;-53
2021/05/17 11:41:55;;;;;;;5.45;1.50;;;12.90;99.90;;;;;;4952840;29;20398;-52
2021/05/17 11:44:23;;;;;;;5.50;1.47;;;12.70;99.90;;;;;;4937118;29;20406;-53
2021/05/17 11:46:53;;;;;;;5.32;1.52;;;12.80;99.90;;;;;;4953035;29;20404;-54
2021/05/17 11:49:22;;;;;;;6.10;1.30;;;13.30;99.90;;;;;;4953421;28;20410;-54
2021/05/17 11:51:52;;;;;;;6.05;1.40;;;14.10;99.90;;;;;;4953076;29;20445;-66
2021/05/17 11:54:19;;;;;;;4.13;1.23;;;14.40;99.90;;;;;;4953980;29;20389;-53
2021/05/17 11:56:48;;;;;;;4.68;1.10;;;14.70;99.90;;;;;;4953740;29;20416;-66
2021/05/17 11:59:23;;;;;;;3.63;0.85;;;14.70;99.90;;;;;;4952724;29;20417;-53
2021/05/17 12:01:52;;;;;;;3.60;1.00;;;14.70;99.90;;;;;;4934882;29;20786;-54
2021/05/17 12:04:29;;;;;;;5.00;1.20;;;15.00;99.90;;;;;;4953715;29;20392;-53
2021/05/17 12:07:00;;;;;;;4.90;0.93;;;15.30;99.90;;;;;;4952767;29;20530;-56
2021/05/17 12:09:26;;;;;;;5.60;0.90;;;15.90;99.90;;;;;;4953613;29;20500;-56
2021/05/17 12:11:52;;;;;;;3.58;0.80;;;16.30;99.90;;;;;;4952988;29;20480;-51
2021/05/17 12:14:19;;;;;;;4.00;0.90;;;16.80;99.90;;;;;;4953393;29;20382;-51
2021/05/17 12:16:44;;;;;;;2.95;0.63;;;17.00;99.90;;;;;;4952499;29;20394;-65
2021/05/17 12:19:15;;;;;;;2.90;0.60;;;16.10;99.90;;;;;;4953160;29;20850;-53
2021/05/17 12:21:41;;;;;;;4.07;0.40;;;15.70;99.90;;;;;;4949607;28;20490;-53
2021/05/17 12:24:22;;;;;;;2.88;0.50;;;15.60;99.90;;;;;;4970616;28;20524;-53
2021/05/17 12:26:52;;;;;;;3.40;0.47;;;15.90;99.90;;;;;;4971854;28;20478;-65
2021/05/17 12:29:19;;;;;;;2.90;0.47;;;15.80;99.90;;;;;;4951526;29;20458;-53
2021/05/17 12:31:46;;;;;;;2.80;0.30;;;15.90;99.90;;;;;;4952436;28;20497;-65
2021/05/17 12:34:12;;;;;;;5.27;0.73;;;15.80;99.90;;;;;;4952384;29;20390;-53
2021/05/17 12:36:38;;;;;;;3.03;0.40;;;16.20;99.90;;;;;;4953150;28;20401;-53
2021/05/17 12:39:05;;;;;;;2.90;0.30;;;16.40;99.90;;;;;;4950608;29;21271;-54
2021/05/17 12:41:37;;;;;;;3.10;0.50;;;16.60;99.90;;;;;;4953000;28;20528;-54
2021/05/17 12:44:23;;;;;;;3.10;0.50;;;16.50;99.90;;;;;;4951705;28;20477;-55
2021/05/17 12:47:04;;;;;;;2.97;0.43;;;15.90;99.90;;;;;;4951684;29;20932;-65
2021/05/17 12:49:51;;;;;;;2.97;0.40;;;16.20;99.90;;;;;;4952851;28;20834;-54
2021/05/17 12:52:36;;;;;;;4.10;0.40;;;16.20;99.90;;;;;;4952806;28;20432;-62
2021/05/17 12:55:11;;;;;;;3.30;0.40;;;16.30;99.90;;;;;;4951533;28;20404;-58
2021/05/17 12:57:48;;;;;;;3.10;0.50;;;16.40;99.90;;;;;;4951175;29;20408;-51
2021/05/17 13:00:15;;;;;;;3.10;0.40;;;16.40;99.90;;;;;;4952626;28;20401;-53
2021/05/17 13:02:41;;;;;;;2.90;0.40;;;15.80;99.90;;;;;;4933947;28;20399;-53
2021/05/17 13:05:08;;;;;;;3.00;0.40;;;15.90;99.90;;;;;;4932995;29;20478;-53
2021/05/17 13:07:33;;;;;;;3.05;0.60;;;15.80;99.90;;;;;;4933136;29;20392;-55
2021/05/17 13:09:59;;;;;;;3.30;0.40;;;15.80;99.90;;;;;;4931975;29;20418;-53
2021/05/17 13:12:25;;;;;;;3.10;0.50;;;16.30;99.90;;;;;;4932763;29;20418;-56
2021/05/17 13:14:51;;;;;;;3.70;0.60;;;16.60;99.90;;;;;;4932363;29;20867;-53
2021/05/17 13:17:17;;;;;;;3.43;0.53;;;17.00;99.90;;;;;;4933007;29;20399;-53
2021/05/17 13:19:57;;;;;;;3.80;0.70;;;16.50;99.90;;;;;;4935771;29;20415;-57
2021/05/17 13:31:00;;;;;;;4.20;0.90;;;14.00;99.90;;;;;;4970132;28;20396;-53
2021/05/17 13:33:37;;;;;;;3.22;0.80;;;15.50;99.90;;;;;;4970726;28;20385;-54
2021/05/17 13:36:14;;;;;;;3.97;0.73;;;14.00;99.90;;;;;;4964406;28;20409;-53
2021/05/17 13:38:43;;;;;;;4.20;0.80;;;14.10;99.90;;;;;;4960619;28;20428;-53